Time;durP1;ratioP1;P1;durP2;ratioP2;P2;SDS_P1;SDS_P2;PMS_P1;PMS_P2;Temp;Humidity;BMP_temperature;BMP_pressure;BME280_temperature;BME280_humidity;BME280_pressure;Samples;Min_cycle;Max_cycle;Signal;HPM_P1;HPM_P2
2024/04/08 00:01:57;;;;;;;;;13.75;12.25;;;;;-143.90;74.68;74690.53;5417183;25;101439;-72
2024/04/08 00:04:24;;;;;;;;;9.25;9.25;;;;;-143.90;73.59;74694.69;5409108;25;98384;-72
2024/04/08 00:06:51;;;;;;;;;9.50;8.00;;;;;-143.90;73.34;74696.75;5389302;25;103817;-72
2024/04/08 00:09:17;;;;;;;;;8.00;7.25;;;;;-143.90;74.38;74707.09;5396666;25;98064;-72
2024/04/08 00:11:44;;;;;;;;;10.75;10.75;;;;;-143.90;76.66;74715.34;5412875;25;99817;-72
2024/04/08 00:14:11;;;;;;;;;15.00;13.50;;;;;-143.90;77.65;74725.69;5416616;25;98255;-72
2024/04/08 00:16:38;;;;;;;;;8.00;7.75;;;;;-143.90;76.99;74729.81;5400410;25;99273;-72
2024/04/08 00:19:04;;;;;;;;;9.00;8.75;;;;;-143.90;76.54;74733.97;5402684;25;100655;-73
2024/04/08 00:21:31;;;;;;;;;8.00;7.00;;;;;-143.90;77.13;74742.22;5400839;25;104492;-72
2024/04/08 00:23:58;;;;;;;;;13.00;12.25;;;;;-143.90;79.23;74748.44;5401590;25;98480;-73
2024/04/08 00:26:24;;;;;;;;;11.25;10.25;;;;;-143.90;79.96;74756.69;5406968;25;99156;-72
2024/04/08 00:28:51;;;;;;;;;15.25;14.00;;;;;-143.90;81.14;74767.03;5396330;25;98279;-72
2024/04/08 00:31:18;;;;;;;;;13.00;13.00;;;;;-143.90;81.37;74769.09;5391514;25;100084;-72
2024/04/08 00:33:44;;;;;;;;;16.00;13.00;;;;;-143.90;81.82;74781.50;5400860;25;98550;-72
2024/04/08 00:36:12;;;;;;;;;10.75;10.50;;;;;-143.90;80.89;74775.31;5398727;25;99753;-72
2024/04/08 00:38:39;;;;;;;;;8.50;7.00;;;;;-143.90;80.48;74783.56;5380077;25;99890;-72
2024/04/08 00:41:06;;;;;;;;;6.00;6.00;;;;;-143.90;80.79;74789.78;5389515;25;99964;-72
2024/04/08 00:43:35;;;;;;;;;7.25;6.75;;;;;-143.90;81.27;74791.84;5394273;25;98202;-72
2024/04/08 00:46:02;;;;;;;;;9.50;9.00;;;;;-143.90;83.26;74802.16;5080085;25;98122;-72
2024/04/08 00:48:28;;;;;;;;;15.75;13.75;;;;;-143.90;85.09;74816.66;5251471;25;99679;-72
2024/04/08 00:50:55;;;;;;;;;14.25;12.00;;;;;-143.90;85.97;74816.66;5157645;25;100594;-72
2024/04/08 00:53:23;;;;;;;;;11.50;11.50;;;;;-143.90;85.14;74816.66;5043659;25;97918;-72
2024/04/08 00:55:51;;;;;;;;;9.00;7.75;;;;;-143.90;84.99;74820.78;5238791;26;100290;-72
2024/04/08 00:58:18;;;;;;;;;9.75;8.75;;;;;-143.90;84.94;74833.19;5072701;25;97850;-73
2024/04/08 01:00:45;;;;;;;;;8.00;7.00;;;;;-143.90;84.95;74831.13;5194342;25;98886;-72
2024/04/08 01:03:13;;;;;;;;;7.00;6.50;;;;;-143.90;85.11;74833.19;5048040;25;99325;-72
2024/04/08 01:05:41;;;;;;;;;5.50;5.50;;;;;-143.90;85.18;74845.59;5214302;25;98356;-73
2024/04/08 01:08:08;;;;;;;;;6.00;5.25;;;;;-143.90;84.82;74862.13;5090628;25;99387;-72
2024/04/08 01:10:35;;;;;;;;;6.25;5.75;;;;;-143.90;85.37;74864.19;5298979;25;99817;-72
2024/04/08 01:13:01;;;;;;;;;6.25;6.25;;;;;-143.90;86.45;74876.59;5244997;25;98140;-73
2024/04/08 01:15:28;;;;;;;;;18.00;16.50;;;;;-143.90;97.19;74893.13;5098962;25;98301;-72
2024/04/08 01:17:55;;;;;;;;;24.25;23.00;;;;;-143.90;100.00;74907.59;5385749;25;97966;-72
2024/04/08 01:20:22;;;;;;;;;24.25;22.00;;;;;-143.90;100.00;74920.00;5307097;25;100812;-72
2024/04/08 01:22:54;;;;;;;;;19.25;15.75;;;;;-143.90;100.00;74932.41;5403062;25;98213;-72
2024/04/08 01:25:20;;;;;;;;;12.50;12.50;;;;;-143.90;100.00;74932.41;5385156;25;98367;-72
2024/04/08 01:27:47;;;;;;;;;9.75;8.50;;;;;-143.90;100.00;74932.41;5387210;25;98183;-72
2024/04/08 01:30:20;;;;;;;;;10.00;8.00;;;;;-143.90;100.00;74930.34;5405671;25;101176;-72
2024/04/08 01:32:46;;;;;;;;;11.00;10.50;;;;;-143.90;100.00;74932.41;5393114;25;97859;-72
2024/04/08 01:35:13;;;;;;;;;18.25;16.75;;;;;-143.90;100.00;74940.69;5395965;25;97928;-72
2024/04/08 01:37:40;;;;;;;;;17.75;16.25;;;;;-143.90;100.00;74938.59;5383100;25;98067;-72
2024/04/08 01:40:07;;;;;;;;;19.75;17.00;;;;;-143.90;100.00;74942.75;5377701;25;99832;-72
2024/04/08 01:42:33;;;;;;;;;18.00;16.50;;;;;-143.90;100.00;74948.94;5421226;25;99212;-72
2024/04/08 01:45:00;;;;;;;;;13.00;13.00;;;;;-143.90;100.00;74957.22;5280757;25;98283;-72
2024/04/08 01:47:27;;;;;;;;;17.25;16.25;;;;;-143.90;100.00;74963.41;5300599;25;99601;-71
2024/04/08 01:49:53;;;;;;;;;13.25;12.00;;;;;-143.90;100.00;74969.63;5078686;25;99774;-72
2024/04/08 01:52:20;;;;;;;;;13.50;10.75;;;;;-143.90;100.00;74973.75;5125418;25;98274;-71
2024/04/08 01:54:47;;;;;;;;;10.25;8.00;;;;;-143.90;100.00;74977.88;5229359;25;98318;-71
2024/04/08 01:57:13;;;;;;;;;12.00;8.75;;;;;-143.90;100.00;74982.03;5400588;25;97838;-72
2024/04/08 01:59:40;;;;;;;;;7.50;7.00;;;;;-143.90;100.00;74986.16;5233936;25;99882;-72
2024/04/08 02:02:07;;;;;;;;;7.00;7.00;;;;;-143.90;100.00;74994.44;5302075;25;99850;-72
2024/04/08 02:04:33;;;;;;;;;8.25;7.00;;;;;-143.90;100.00;74998.56;4931114;25;99456;-72
2024/04/08 02:07:00;;;;;;;;;19.25;16.25;;;;;-143.90;100.00;75002.69;5023640;25;98654;-72
2024/04/08 02:09:27;;;;;;;;;18.25;17.25;;;;;-143.90;100.00;75013.03;5051878;26;100731;-71
2024/04/08 02:11:54;;;;;;;;;18.50;17.50;;;;;-143.90;100.00;75013.03;5023102;25;98462;-72
2024/04/08 02:14:20;;;;;;;;;17.25;15.50;;;;;-143.90;100.00;75019.22;5184637;25;98347;-72
2024/04/08 02:16:47;;;;;;;;;22.50;16.75;;;;;-143.90;100.00;75023.38;4969402;25;99166;-72
2024/04/08 02:19:14;;;;;;;;;18.00;15.50;;;;;-143.90;100.00;75019.22;5197259;25;99819;-72
2024/04/08 02:21:42;;;;;;;;;18.00;17.00;;;;;-143.90;100.00;75017.16;5034563;25;98859;-72
2024/04/08 02:24:09;;;;;;;;;22.50;20.25;;;;;-143.90;100.00;75019.22;5253914;25;99004;-72
2024/04/08 02:26:36;;;;;;;;;21.00;17.50;;;;;-143.90;100.00;75021.31;5257927;25;97958;-72
2024/04/08 02:29:02;;;;;;;;;27.75;22.75;;;;;-143.90;100.00;75023.38;5066306;25;99922;-71
2024/04/08 02:31:29;;;;;;;;;25.50;25.25;;;;;-143.90;100.00;75031.63;5328283;25;98486;-71
2024/04/08 02:33:56;;;;;;;;;24.00;22.50;;;;;-143.90;100.00;75035.78;5420607;25;98364;-71
2024/04/08 02:36:23;;;;;;;;;22.75;19.00;;;;;-143.90;100.00;75037.84;5419136;25;98650;-71
2024/04/08 02:38:49;;;;;;;;;20.25;19.25;;;;;-143.90;100.00;75039.91;5400246;25;99774;-72
2024/04/08 02:41:16;;;;;;;;;24.00;20.00;;;;;-143.90;100.00;75041.97;5388946;25;97898;-72
2024/04/08 02:43:43;;;;;;;;;20.25;18.00;;;;;-143.90;100.00;75044.03;5400656;25;99002;-72
2024/04/08 02:46:10;;;;;;;;;18.50;15.25;;;;;-143.90;100.00;75046.09;5405899;25;98627;-71
2024/04/08 02:48:38;;;;;;;;;15.00;14.00;;;;;-143.90;100.00;75044.03;5421828;25;99789;-72
2024/04/08 02:51:05;;;;;;;;;16.00;13.25;;;;;-143.90;100.00;75048.19;5404790;25;98328;-72
2024/04/08 02:53:34;;;;;;;;;18.00;16.75;;;;;-143.90;100.00;75050.25;5419579;25;98252;-72
2024/04/08 02:56:00;;;;;;;;;22.00;20.00;;;;;-143.90;100.00;75048.19;5412298;25;97818;-72
2024/04/08 02:58:31;;;;;;;;;17.50;16.00;;;;;-143.90;100.00;75056.44;5409513;25;99775;-72
2024/04/08 03:01:03;;;;;;;;;22.25;20.00;;;;;-143.90;100.00;75056.44;5394587;25;98186;-71
2024/04/08 03:03:30;;;;;;;;;19.50;18.75;;;;;-143.90;100.00;75056.44;5391177;25;98245;-72
2024/04/08 03:05:57;;;;;;;;;15.50;13.50;;;;;-143.90;100.00;75056.44;5395800;25;98202;-72
2024/04/08 03:08:24;;;;;;;;;18.50;17.75;;;;;-143.90;100.00;75058.50;5415872;25;99770;-72
2024/04/08 03:10:57;;;;;;;;;21.25;21.25;;;;;-143.90;100.00;75056.44;5414768;25;98179;-72
2024/04/08 03:13:23;;;;;;;;;17.75;15.75;;;;;-143.90;100.00;75060.59;5411850;25;98251;-72
2024/04/08 03:15:54;;;;;;;;;20.50;16.75;;;;;-143.90;100.00;75056.44;5405657;25;98469;-71
2024/04/08 03:18:22;;;;;;;;;13.00;12.00;;;;;-143.90;100.00;75052.31;5406027;25;99840;-72
2024/04/08 03:20:55;;;;;;;;;13.50;12.25;;;;;-143.90;100.00;75052.31;5401880;25;98095;-71
2024/04/08 03:23:23;;;;;;;;;10.00;9.00;;;;;-143.90;100.00;75048.19;5390038;25;98265;-72
2024/04/08 03:26:00;;;;;;;;;10.50;10.25;;;;;-143.90;100.00;75048.19;5409078;25;98377;-72
2024/04/08 03:28:28;;;;;;;;;21.00;19.00;;;;;-143.90;100.00;75044.03;5421316;25;99717;-72
2024/04/08 03:30:55;;;;;;;;;15.50;14.00;;;;;-143.90;100.00;75039.91;5403819;25;98549;-72
2024/04/08 03:33:23;;;;;;;;;18.75;15.00;;;;;-143.90;100.00;75033.72;5396775;25;98278;-72
2024/04/08 03:35:51;;;;;;;;;11.75;10.50;;;;;-143.90;100.00;75023.38;5408277;25;98207;-72
2024/04/08 03:38:19;;;;;;;;;9.25;8.75;;;;;-143.90;100.00;75004.75;5404877;25;99898;-72
2024/04/08 03:40:57;;;;;;;;;6.25;5.75;;;;;-143.90;100.00;74994.44;5418131;25;98204;-72
2024/04/08 03:43:23;;;;;;;;;5.00;3.50;;;;;-143.90;100.00;74986.16;5402744;25;98219;-72
2024/04/08 03:45:50;;;;;;;;;5.50;5.50;;;;;-143.90;100.00;74975.81;5404209;25;99439;-72
2024/04/08 03:48:17;;;;;;;;;3.50;2.75;;;;;-143.90;100.00;74959.28;5397861;25;99764;-72
2024/04/08 03:50:44;;;;;;;;;4.00;3.50;;;;;-143.90;100.00;74959.28;5422671;25;98061;-72
2024/04/08 03:53:11;;;;;;;;;4.25;3.00;;;;;-143.90;100.00;74940.69;5392191;25;98374;-72
2024/04/08 03:55:37;;;;;;;;;2.50;2.50;;;;;-143.90;100.00;74936.53;5428589;25;97941;-72
2024/04/08 03:58:04;;;;;;;;;2.50;1.50;;;;;-143.90;100.00;74928.28;5414203;25;99868;-72
2024/04/08 04:00:31;;;;;;;;;0.50;0.50;;;;;-143.90;100.00;74917.94;5413326;25;97911;-72
2024/04/08 04:02:58;;;;;;;;;2.00;2.00;;;;;-143.90;100.00;74913.81;5416753;25;98135;-72
2024/04/08 04:05:25;;;;;;;;;1.50;1.00;;;;;-143.90;100.00;74907.59;5423711;25;98009;-72
2024/04/08 04:07:52;;;;;;;;;1.00;0.00;;;;;-143.90;100.00;74909.66;5413758;25;99920;-72
2024/04/08 04:10:18;;;;;;;;;2.75;2.75;;;;;-143.90;100.00;74907.59;5397721;25;98230;-72
2024/04/08 04:12:45;;;;;;;;;3.00;2.75;;;;;-143.90;100.00;74909.66;5435780;25;98222;-72
2024/04/08 04:15:12;;;;;;;;;4.25;4.00;;;;;-143.90;100.00;74915.88;5404608;25;97982;-72
2024/04/08 04:21:20;;;;;;;;;14.25;13.00;;;;;-143.90;100.00;74932.41;5418953;25;98344;-72
2024/04/08 04:23:46;;;;;;;;;10.00;9.00;;;;;-143.90;100.00;74940.69;5426552;25;102095;-72
2024/04/08 04:26:13;;;;;;;;;11.75;11.00;;;;;-143.90;100.00;74948.94;5416051;25;101168;-71
2024/04/08 04:28:40;;;;;;;;;8.50;8.00;;;;;-143.90;100.00;74957.22;5404133;25;99760;-70
2024/04/08 04:31:07;;;;;;;;;11.50;11.00;;;;;-143.90;100.00;74959.28;5404981;25;100232;-71
2024/04/08 04:33:33;;;;;;;;;19.75;17.00;;;;;-143.90;100.00;74969.63;5403381;25;98381;-71
2024/04/08 04:36:01;;;;;;;;;16.00;15.00;;;;;-143.90;100.00;74975.81;5401628;25;97908;-71
2024/04/08 04:38:28;;;;;;;;;24.00;21.00;;;;;-143.90;100.00;74969.63;5409939;25;99907;-71
2024/04/08 04:40:59;;;;;;;;;24.50;23.25;;;;;-143.90;100.00;74973.75;5404212;25;98275;-70
2024/04/08 04:43:26;;;;;;;;;28.00;27.00;;;;;-143.90;100.00;74973.75;5396495;25;98343;-70
2024/04/08 04:45:52;;;;;;;;;20.75;19.00;;;;;-143.90;100.00;74982.03;5405628;25;98258;-71
2024/04/08 04:48:19;;;;;;;;;19.25;17.75;;;;;-143.90;100.00;74973.75;5392139;25;99842;-70
2024/04/08 04:50:46;;;;;;;;;20.50;20.00;;;;;-143.90;100.00;74969.63;5418050;25;98825;-71
2024/04/08 04:53:13;;;;;;;;;13.25;12.00;;;;;-143.90;100.00;74961.34;5389442;25;98566;-71
2024/04/08 04:55:40;;;;;;;;;5.25;4.75;;;;;-143.90;100.00;74951.00;5396185;25;98468;-70
2024/04/08 04:58:06;;;;;;;;;11.25;10.75;;;;;-143.90;100.00;74946.88;5386615;25;99760;-70
2024/04/08 05:00:36;;;;;;;;;13.50;12.00;;;;;-143.90;100.00;74936.53;5413305;25;98346;-70
2024/04/08 05:03:02;;;;;;;;;16.25;14.75;;;;;-143.90;100.00;74928.28;5405105;25;98298;-70
2024/04/08 05:05:29;;;;;;;;;12.50;12.25;;;;;-143.90;100.00;74920.00;5391719;25;99735;-70
2024/04/08 05:07:56;;;;;;;;;20.50;18.00;;;;;-143.90;100.00;74905.53;5411164;25;99816;-70
2024/04/08 05:10:23;;;;;;;;;15.75;14.50;;;;;-143.90;100.00;74895.19;5410352;25;98240;-70
2024/04/08 05:12:50;;;;;;;;;13.00;13.00;;;;;-143.90;100.00;74886.94;5398314;25;97776;-69
2024/04/08 05:15:16;;;;;;;;;13.50;13.00;;;;;-143.90;100.00;74878.66;5394000;25;98110;-70
2024/04/08 05:17:43;;;;;;;;;13.25;11.75;;;;;-143.90;100.00;74876.59;5386342;25;104736;-70
2024/04/08 05:20:10;;;;;;;;;11.00;10.50;;;;;-143.90;100.00;74866.25;5394409;25;97874;-71
2024/04/08 05:22:39;;;;;;;;;13.00;12.00;;;;;-143.90;100.00;74860.06;5410110;25;98332;-70
2024/04/08 05:25:06;;;;;;;;;10.25;10.00;;;;;-143.90;100.00;74845.59;5401733;25;99162;-70
2024/04/08 05:27:33;;;;;;;;;13.25;13.25;;;;;-143.90;100.00;74835.25;5387606;25;99706;-70
2024/04/08 05:30:00;;;;;;;;;14.00;14.00;;;;;-143.90;100.00;74829.03;5414675;25;98156;-70
2024/04/08 05:32:27;;;;;;;;;14.00;12.50;;;;;-143.90;100.00;74816.66;5398195;25;99201;-70
2024/04/08 05:34:53;;;;;;;;;15.00;14.00;;;;;-143.90;100.00;74808.38;5419712;25;98473;-70
2024/04/08 05:37:20;;;;;;;;;10.50;10.00;;;;;-143.90;100.00;74795.97;5366720;25;99956;-70
2024/04/08 05:39:47;;;;;;;;;9.75;9.75;;;;;-143.90;100.00;74791.84;5399111;25;99515;-70
2024/04/08 05:42:13;;;;;;;;;5.75;5.25;;;;;-143.90;100.00;74779.44;5415997;25;98596;-70
2024/04/08 05:44:40;;;;;;;;;8.00;8.00;;;;;-143.90;100.00;74773.22;5416277;25;98250;-71
2024/04/08 05:47:07;;;;;;;;;10.00;7.00;;;;;-143.90;100.00;74750.50;5411014;25;99734;-71
2024/04/08 05:49:33;;;;;;;;;6.50;6.25;;;;;-143.90;100.00;74738.09;5376605;25;98389;-71
2024/04/08 05:52:00;;;;;;;;;6.50;6.25;;;;;-143.90;100.00;74709.16;5405421;25;98748;-71
2024/04/08 05:54:27;;;;;;;;;7.00;6.75;;;;;-143.90;100.00;74684.34;5409310;25;98540;-70
2024/04/08 05:56:53;;;;;;;;;7.50;7.50;;;;;-143.90;100.00;74651.28;5407819;25;99910;-71
2024/04/08 05:59:20;;;;;;;;;5.50;5.50;;;;;-143.90;100.00;74618.19;5384189;25;98220;-71
2024/04/08 06:01:47;;;;;;;;;5.00;5.00;;;;;-143.90;100.00;74572.72;5409276;25;100062;-71
2024/04/08 06:04:14;;;;;;;;;6.00;5.25;;;;;-143.90;100.00;74523.09;5412730;25;98196;-71
2024/04/08 06:06:40;;;;;;;;;7.00;7.00;;;;;-143.90;100.00;74471.44;5396920;25;99745;-70
2024/04/08 06:09:08;;;;;;;;;6.50;6.50;;;;;-143.90;100.00;74403.22;5419711;25;104288;-70
2024/04/08 06:11:34;;;;;;;;;7.00;6.00;;;;;-143.90;100.00;74337.06;5385849;25;98584;-70
2024/04/08 06:14:01;;;;;;;;;11.00;9.50;;;;;-143.90;100.00;74270.94;5426851;25;98102;-70
2024/04/08 06:16:28;;;;;;;;;9.50;9.50;;;;;-143.90;100.00;74213.06;5398645;25;99773;-71
2024/04/08 06:18:55;;;;;;;;;9.00;8.00;;;;;-143.90;100.00;74138.66;5409951;25;97680;-70
2024/04/08 06:21:24;;;;;;;;;11.00;8.00;;;;;-143.90;100.00;74089.06;5393113;25;97903;-71
2024/04/08 06:23:51;;;;;;;;;6.00;6.00;;;;;-143.90;100.00;74033.25;5428492;25;98336;-71
2024/04/08 06:26:18;;;;;;;;;6.00;6.00;;;;;-143.90;100.00;73998.13;5421840;25;99741;-70
2024/04/08 06:28:45;;;;;;;;;8.00;6.67;;;;;-143.90;100.00;73965.03;5415251;25;98095;-71
2024/04/08 06:31:11;;;;;;;;;6.67;6.00;;;;;-143.90;99.42;73934.03;5411205;25;101840;-70
2024/04/08 06:33:38;;;;;;;;;6.33;6.00;;;;;-143.90;97.39;73892.69;5406358;25;98619;-71
2024/04/08 06:36:05;;;;;;;;;5.33;5.33;;;;;-143.90;95.94;73845.16;5428713;25;99766;-70
2024/04/08 06:38:32;;;;;;;;;6.00;6.00;;;;;-143.90;93.63;73803.84;5419833;25;97893;-70
2024/04/08 06:40:59;;;;;;;;;6.00;5.33;;;;;-143.90;92.12;73768.69;5398440;25;98172;-71
2024/04/08 06:43:25;;;;;;;;;5.33;4.33;;;;;-143.90;90.20;73727.38;5381189;25;98135;-71
2024/04/08 06:46:00;;;;;;;;;7.00;6.00;;;;;-143.90;86.84;73688.09;5415796;25;102887;-72
2024/04/08 06:48:27;;;;;;;;;5.00;5.00;;;;;-143.90;82.73;73650.91;5408764;25;98458;-70
2024/04/08 06:50:54;;;;;;;;;6.00;5.00;;;;;-143.90;81.07;73626.09;5430732;25;98319;-70
2024/04/08 06:53:22;;;;;;;;;4.00;4.00;;;;;-143.90;80.43;73619.91;5413484;25;98379;-70
2024/04/08 06:55:48;;;;;;;;;4.33;4.33;;;;;-143.90;79.77;73621.97;5431923;25;99742;-71
2024/04/08 06:58:19;;;;;;;;;4.67;4.67;;;;;-143.90;78.63;73611.63;5394392;25;98004;-70
2024/04/08 07:00:47;;;;;;;;;5.00;4.00;;;;;-143.90;76.21;73605.44;5403952;25;99168;-71
2024/04/08 07:03:14;;;;;;;;;4.33;3.67;;;;;-143.90;72.72;73580.63;5397188;25;98333;-70
2024/04/08 07:05:41;;;;;;;;;4.67;4.67;;;;;-143.90;70.97;73557.91;5393244;25;99898;-71
2024/04/08 07:08:08;;;;;;;;;4.00;3.00;;;;;-143.90;70.08;73545.50;5395984;25;103354;-70
2024/04/08 07:10:38;;;;;;;;;3.00;3.00;;;;;-143.90;68.86;73535.19;5397019;25;97871;-70
2024/04/08 07:13:05;;;;;;;;;5.33;4.33;;;;;-143.90;67.13;73541.38;5397734;25;98119;-71
2024/04/08 07:15:32;;;;;;;;;3.33;3.33;;;;;-143.90;63.16;73528.97;5389383;25;99731;-70
2024/04/08 07:17:59;;;;;;;;;4.00;3.00;;;;;-143.90;56.53;73537.25;5429498;25;99354;-71
2024/04/08 07:20:26;;;;;;;;;2.33;2.33;;;;;-143.90;55.19;73543.44;5403755;25;98173;-71
2024/04/08 07:22:53;;;;;;;;;3.00;2.00;;;;;-143.90;54.98;73551.72;5407483;25;97967;-70
2024/04/08 07:25:19;;;;;;;;;5.33;3.00;;;;;-143.90;54.46;73551.72;5407034;25;99762;-70
2024/04/08 07:27:46;;;;;;;;;4.67;3.00;;;;;-143.90;54.19;73557.91;5424340;25;105322;-70
2024/04/08 07:30:14;;;;;;;;;4.00;4.00;;;;;-143.90;53.17;73564.09;5407689;25;98626;-71
2024/04/08 07:32:41;;;;;;;;;3.00;3.00;;;;;-143.90;52.46;73572.38;5424387;25;97892;-70
2024/04/08 07:35:08;;;;;;;;;4.00;3.33;;;;;-143.90;52.88;73584.78;5409177;25;99937;-70
2024/04/08 07:37:35;;;;;;;;;3.00;3.00;;;;;-143.90;52.29;73593.03;5392390;25;98216;-70
2024/04/08 07:40:03;;;;;;;;;4.67;4.67;;;;;-143.90;51.73;73601.31;5399819;25;97729;-70
2024/04/08 07:42:29;;;;;;;;;7.33;6.00;;;;;-143.90;50.50;73613.72;5420973;25;97943;-71
2024/04/08 07:44:56;;;;;;;;;4.00;4.00;;;;;-143.90;50.87;73611.63;5410437;25;99813;-70
2024/04/08 07:47:23;;;;;;;;;3.33;3.00;;;;;-143.90;51.19;73609.56;5385660;25;98390;-70
2024/04/08 07:49:55;;;;;;;;;3.00;3.00;;;;;-143.90;51.16;73599.25;5396915;25;98469;-71
2024/04/08 07:52:22;;;;;;;;;3.00;3.00;;;;;-143.90;50.66;73593.03;5418340;25;99305;-70
2024/04/08 07:54:49;;;;;;;;;3.67;3.00;;;;;-143.90;50.46;73576.50;5428966;25;99769;-70
2024/04/08 07:57:17;;;;;;;;;4.00;4.00;;;;;-143.90;50.67;73574.44;5404681;25;98016;-72
2024/04/08 07:59:44;;;;;;;;;2.67;2.00;;;;;-143.90;50.19;73564.09;5415057;25;98125;-70
2024/04/08 08:02:10;;;;;;;;;5.00;4.00;;;;;-143.90;49.32;73553.78;5397275;25;98438;-71
2024/04/08 08:04:37;;;;;;;;;7.00;6.00;;;;;-143.90;48.79;73539.31;5409459;25;99717;-71
2024/04/08 08:07:04;;;;;;;;;6.00;5.00;;;;;-143.90;48.45;73526.91;5414899;25;98134;-71
2024/04/08 08:09:31;;;;;;;;;5.67;5.00;;;;;-143.90;47.96;73510.38;5407896;25;98115;-71
2024/04/08 08:11:57;;;;;;;;;6.00;5.33;;;;;-143.90;46.94;73489.72;5424442;25;98062;-70
2024/04/08 08:14:24;;;;;;;;;4.00;4.00;;;;;-143.90;46.25;73464.91;5404700;25;100150;-71
2024/04/08 08:16:51;;;;;;;;;5.33;5.00;;;;;-143.90;46.38;73448.38;5403843;25;98501;-71
2024/04/08 08:19:17;;;;;;;;;3.67;3.67;;;;;-143.90;46.25;73427.72;5415755;25;97917;-70
2024/04/08 08:21:44;;;;;;;;;3.33;3.00;;;;;-143.90;46.09;73411.19;5389146;25;97944;-71
2024/04/08 08:24:12;;;;;;;;;5.00;5.00;;;;;-143.90;45.81;73400.84;5388898;25;99798;-71
2024/04/08 08:26:38;;;;;;;;;3.33;3.33;;;;;-143.90;45.64;73402.91;5389971;25;98383;-70
2024/04/08 08:29:05;;;;;;;;;4.33;4.00;;;;;-143.90;45.24;73407.06;5424046;25;97997;-71
2024/04/08 08:31:32;;;;;;;;;4.67;4.00;;;;;-143.90;45.30;73413.25;5374992;25;100267;-70
2024/04/08 08:33:59;;;;;;;;;3.00;3.00;;;;;-143.90;45.87;73411.19;5384838;25;99741;-71
2024/04/08 08:36:26;;;;;;;;;3.67;3.00;;;;;-143.90;44.54;73419.44;5391505;25;98136;-71
2024/04/08 08:38:53;;;;;;;;;5.00;3.67;;;;;-143.90;44.90;73417.38;5404252;25;98524;-71
2024/04/08 08:41:23;;;;;;;;;3.00;2.00;;;;;-143.90;45.34;73415.31;5410412;25;98229;-71
2024/04/08 08:43:50;;;;;;;;;3.00;3.00;;;;;-143.90;45.10;73417.38;5410921;25;104466;-70
2024/04/08 08:46:17;;;;;;;;;2.67;2.67;;;;;-143.90;45.58;73402.91;5396049;25;98281;-70
2024/04/08 08:48:47;;;;;;;;;3.00;3.00;;;;;-143.90;45.28;73396.72;5398367;25;97856;-71
2024/04/08 08:51:14;;;;;;;;;3.00;3.00;;;;;-143.90;45.08;73386.38;5388486;25;98293;-71
2024/04/08 08:53:41;;;;;;;;;3.00;3.00;;;;;-143.90;44.34;73365.72;5404671;25;100265;-71
2024/04/08 08:56:14;;;;;;;;;3.00;3.00;;;;;-143.90;44.60;73357.47;5407140;25;98325;-71
2024/04/08 08:58:52;;;;;;;;;4.00;3.00;;;;;-143.90;43.55;73355.38;5398658;25;98123;-70
2024/04/08 09:01:20;;;;;;;;;3.67;3.00;;;;;-143.90;43.48;73340.94;5401353;25;98031;-70
2024/04/08 09:03:47;;;;;;;;;4.00;4.00;;;;;-143.90;43.31;73336.78;5408873;25;99476;-71
2024/04/08 09:06:14;;;;;;;;;6.00;5.33;;;;;-143.90;43.16;73332.66;5424279;25;98239;-71
2024/04/08 09:08:41;;;;;;;;;4.67;4.00;;;;;-143.90;42.87;73322.31;5028992;25;10000623;-71
2024/04/08 09:11:10;;;;;;;;;4.33;3.67;;;;;-143.90;42.86;73309.94;5400750;25;98251;-71
2024/04/08 09:13:38;;;;;;;;;4.67;4.67;;;;;-143.90;42.77;73299.59;5397415;25;100192;-71
2024/04/08 09:16:05;;;;;;;;;2.33;2.33;;;;;-143.90;41.88;73295.47;5402509;25;99793;-71
2024/04/08 09:18:31;;;;;;;;;5.67;5.00;;;;;-143.90;41.77;73287.19;5422146;25;97757;-71
2024/04/08 09:20:58;;;;;;;;;6.33;6.00;;;;;-143.90;41.74;73278.94;5402719;25;98650;-72
2024/04/08 09:23:25;;;;;;;;;6.67;5.00;;;;;-143.90;40.94;73274.81;5369860;25;98017;-72
2024/04/08 09:25:55;;;;;;;;;4.33;4.00;;;;;-143.90;41.32;73270.66;5116791;25;99814;-71
2024/04/08 09:28:21;;;;;;;;;6.67;6.33;;;;;-143.90;41.74;73258.25;5315608;25;98330;-72
2024/04/08 09:30:48;;;;;;;;;5.00;4.00;;;;;-143.90;40.85;73250.00;5213772;25;98225;-72
2024/04/08 09:33:15;;;;;;;;;5.00;5.00;;;;;-143.90;40.71;73237.59;5169009;25;97979;-71
2024/04/08 09:35:43;;;;;;;;;6.00;6.00;;;;;-143.90;40.37;73225.19;5226233;25;99918;-72
2024/04/08 09:38:12;;;;;;;;;5.00;5.00;;;;;-143.90;40.25;73223.13;5150417;25;98536;-72
2024/04/08 09:40:39;;;;;;;;;5.00;5.00;;;;;-143.90;40.27;73202.47;5163805;25;98274;-72
2024/04/08 09:43:08;;;;;;;;;3.67;3.67;;;;;-143.90;40.04;73194.22;5015438;25;99003;-71
2024/04/08 09:45:39;;;;;;;;;4.00;3.00;;;;;-143.90;39.90;73167.34;5077212;26;100979;-71
2024/04/08 09:48:11;;;;;;;;;3.00;3.00;;;;;-143.90;39.96;73146.69;5016424;26;99888;-71
2024/04/08 09:50:41;;;;;;;;;2.67;2.67;;;;;-143.90;39.94;73126.03;5274718;25;99544;-71
2024/04/08 09:53:09;;;;;;;;;3.00;3.00;;;;;-143.90;39.65;73103.28;5380921;25;98689;-72
2024/04/08 09:55:42;;;;;;;;;4.67;3.67;;;;;-143.90;39.25;73088.81;5395232;25;99788;-71
2024/04/08 09:58:18;;;;;;;;;3.00;3.00;;;;;-143.90;38.48;73068.16;5376533;25;98507;-71
2024/04/08 10:00:46;;;;;;;;;5.00;5.00;;;;;-143.90;38.51;73057.84;5330755;25;98354;-70
2024/04/08 10:03:15;;;;;;;;;5.00;4.67;;;;;-143.90;38.46;73051.63;5399468;25;101946;-71
2024/04/08 10:05:43;;;;;;;;;3.67;3.33;;;;;-143.90;37.74;73051.63;5393535;25;99697;-71
2024/04/08 10:08:11;;;;;;;;;5.67;5.00;;;;;-143.90;37.20;73045.44;5391880;25;98027;-70
2024/04/08 10:10:39;;;;;;;;;4.00;4.00;;;;;-143.90;37.10;73049.56;5394393;25;99661;-71
2024/04/08 10:13:08;;;;;;;;;4.00;3.00;;;;;-143.90;37.63;73043.38;5403152;25;98003;-70
2024/04/08 10:15:36;;;;;;;;;2.33;2.33;;;;;-143.90;37.54;73028.91;5398078;25;99746;-71
2024/04/08 10:18:05;;;;;;;;;3.67;3.67;;;;;-143.90;36.73;73018.56;5411405;25;97726;-70
2024/04/08 10:20:32;;;;;;;;;3.00;2.33;;;;;-143.90;37.02;73008.25;5298999;25;100020;-71
2024/04/08 10:22:59;;;;;;;;;3.00;2.33;;;;;-143.90;36.54;72997.91;5321924;25;98429;-71
2024/04/08 10:25:29;;;;;;;;;4.67;4.67;;;;;-143.90;33.05;73012.38;5245363;25;99571;-71
2024/04/08 10:28:03;;;;;;;;;3.00;3.00;;;;;-143.90;34.22;73008.25;5324725;25;98068;-71
2024/04/08 10:30:31;;;;;;;;;4.00;4.00;;;;;-143.90;33.00;73016.50;5202243;25;98643;-70
2024/04/08 10:33:00;;;;;;;;;3.00;2.67;;;;;-143.90;33.25;73006.16;5295379;26;98666;-71
2024/04/08 10:35:27;;;;;;;;;3.00;3.00;;;;;-143.90;32.72;73022.69;5080861;26;99924;-71
2024/04/08 10:37:53;;;;;;;;;3.00;3.00;;;;;-143.90;32.31;73039.22;5241617;25;99954;-71
2024/04/08 10:40:21;;;;;;;;;3.00;2.00;;;;;-143.90;32.65;73043.38;5192157;25;98305;-71
2024/04/08 10:42:50;;;;;;;;;3.00;3.00;;;;;-143.90;32.04;73043.38;5044162;25;98742;-71
2024/04/08 10:45:19;;;;;;;;;3.33;3.00;;;;;-143.90;32.43;73043.38;5000797;25;99033;-72
2024/04/08 10:47:46;;;;;;;;;3.00;3.00;;;;;-143.90;32.46;73041.31;5264180;25;98969;-71
2024/04/08 10:50:13;;;;;;;;;3.33;2.00;;;;;-143.90;32.87;73035.09;5278573;25;99921;-72
2024/04/08 10:52:41;;;;;;;;;2.00;2.00;;;;;-143.90;32.82;73035.09;5168809;25;97865;-71
2024/04/08 10:55:08;;;;;;;;;2.00;2.00;;;;;-143.90;33.18;73022.69;5018854;25;100900;-71
2024/04/08 10:57:35;;;;;;;;;3.00;3.00;;;;;-143.90;32.72;73020.63;5271155;25;98284;-71
2024/04/08 11:00:04;;;;;;;;;3.00;3.00;;;;;-143.90;32.42;73014.44;5353755;25;98627;-70
2024/04/08 11:02:34;;;;;;;;;3.67;3.00;;;;;-143.90;31.85;73018.56;5240474;25;98402;-71
2024/04/08 11:05:01;;;;;;;;;2.00;1.67;;;;;-143.90;32.08;73018.56;5441525;25;100651;-71
2024/04/08 11:07:35;;;;;;;;;3.00;3.00;;;;;-143.90;32.32;73014.44;5270313;25;98491;-71
2024/04/08 11:10:05;;;;;;;;;2.00;2.00;;;;;-143.90;32.41;73014.44;5379579;25;98829;-70
2024/04/08 11:12:31;;;;;;;;;3.00;3.00;;;;;-143.90;32.13;73004.09;5401851;25;98958;-70